sensor_id;sensor_type;location;lat;lon;timestamp;pressure;altitude;pressure_sealevel;temperature;humidity
28027;BME280;15344;52.342;-1.290;2023-05-23T00:00:21;101243.89;;;15.88;44.41
28027;BME280;15344;52.342;-1.290;2023-05-23T00:02:47;101243.07;;;17.58;42.87
28027;BME280;15344;52.342;-1.290;2023-05-23T00:05:12;101245.96;;;17.67;43.30
28027;BME280;15344;52.342;-1.290;2023-05-23T00:07:38;101246.40;;;17.75;43.45
28027;BME280;15344;52.342;-1.290;2023-05-23T00:10:04;101247.62;;;17.64;43.17
28027;BME280;15344;52.342;-1.290;2023-05-23T00:12:29;101248.43;;;17.70;44.03
28027;BME280;15344;52.342;-1.290;2023-05-23T00:14:54;101251.19;;;17.39;43.60
28027;BME280;15344;52.342;-1.290;2023-05-23T00:17:20;101248.98;;;17.39;43.58
28027;BME280;15344;52.342;-1.290;2023-05-23T00:19:46;101249.32;;;17.00;44.76
28027;BME280;15344;52.342;-1.290;2023-05-23T00:22:11;101252.90;;;17.70;43.96
28027;BME280;15344;52.342;-1.290;2023-05-23T00:24:37;101255.07;;;17.82;43.61
28027;BME280;15344;52.342;-1.290;2023-05-23T00:27:03;101253.92;;;16.78;45.21
28027;BME280;15344;52.342;-1.290;2023-05-23T00:29:28;101254.71;;;17.24;45.35
28027;BME280;15344;52.342;-1.290;2023-05-23T00:31:53;101259.75;;;17.04;45.52
28027;BME280;15344;52.342;-1.290;2023-05-23T00:34:19;101260.90;;;17.65;44.32
28027;BME280;15344;52.342;-1.290;2023-05-23T00:36:45;101264.64;;;17.60;45.24
28027;BME280;15344;52.342;-1.290;2023-05-23T00:39:10;101262.80;;;17.81;45.90
28027;BME280;15344;52.342;-1.290;2023-05-23T00:41:36;101260.20;;;18.24;45.02
28027;BME280;15344;52.342;-1.290;2023-05-23T00:44:01;101261.40;;;17.39;45.28
28027;BME280;15344;52.342;-1.290;2023-05-23T00:46:27;101261.72;;;17.42;45.28
28027;BME280;15344;52.342;-1.290;2023-05-23T00:48:53;101262.78;;;17.42;46.38
28027;BME280;15344;52.342;-1.290;2023-05-23T00:51:19;101256.26;;;17.79;45.15
28027;BME280;15344;52.342;-1.290;2023-05-23T00:53:44;101257.37;;;17.11;46.75
28027;BME280;15344;52.342;-1.290;2023-05-23T00:56:10;101257.41;;;16.77;46.57
28027;BME280;15344;52.342;-1.290;2023-05-23T00:58:36;101252.22;;;17.78;45.42
28027;BME280;15344;52.342;-1.290;2023-05-23T01:01:01;101248.47;;;17.89;45.78
28027;BME280;15344;52.342;-1.290;2023-05-23T01:03:26;101251.56;;;16.73;46.12
28027;BME280;15344;52.342;-1.290;2023-05-23T01:05:51;101250.31;;;17.61;46.59
28027;BME280;15344;52.342;-1.290;2023-05-23T01:08:17;101248.06;;;17.46;46.19
28027;BME280;15344;52.342;-1.290;2023-05-23T01:10:43;101253.17;;;17.60;46.10
28027;BME280;15344;52.342;-1.290;2023-05-23T01:13:16;101251.23;;;17.38;47.12
28027;BME280;15344;52.342;-1.290;2023-05-23T01:15:39;101253.75;;;18.25;46.26
28027;BME280;15344;52.342;-1.290;2023-05-23T01:18:02;101255.67;;;17.98;45.93
28027;BME280;15344;52.342;-1.290;2023-05-23T01:20:29;101257.31;;;17.18;48.04
28027;BME280;15344;52.342;-1.290;2023-05-23T01:23:04;101257.37;;;17.20;47.00
28027;BME280;15344;52.342;-1.290;2023-05-23T01:25:27;101256.34;;;17.65;46.55
28027;BME280;15344;52.342;-1.290;2023-05-23T01:27:47;101256.46;;;17.85;47.17
28027;BME280;15344;52.342;-1.290;2023-05-23T01:30:09;101254.88;;;18.06;46.36
28027;BME280;15344;52.342;-1.290;2023-05-23T01:32:33;101252.49;;;18.09;46.62
28027;BME280;15344;52.342;-1.290;2023-05-23T01:34:58;101251.10;;;17.91;46.55
28027;BME280;15344;52.342;-1.290;2023-05-23T01:37:23;101249.80;;;18.70;45.73
28027;BME280;15344;52.342;-1.290;2023-05-23T01:39:49;101256.99;;;18.23;48.09
28027;BME280;15344;52.342;-1.290;2023-05-23T01:42:14;101261.75;;;18.04;49.31
28027;BME280;15344;52.342;-1.290;2023-05-23T01:44:40;101258.08;;;17.37;49.28
28027;BME280;15344;52.342;-1.290;2023-05-23T01:47:07;101255.67;;;17.96;49.35
28027;BME280;15344;52.342;-1.290;2023-05-23T01:49:31;101256.63;;;17.90;48.37
28027;BME280;15344;52.342;-1.290;2023-05-23T01:51:58;101255.57;;;18.16;49.31
28027;BME280;15344;52.342;-1.290;2023-05-23T01:54:22;101254.51;;;18.20;48.82
28027;BME280;15344;52.342;-1.290;2023-05-23T01:56:48;101259.65;;;18.15;48.67
28027;BME280;15344;52.342;-1.290;2023-05-23T01:59:13;101262.40;;;18.01;48.34
28027;BME280;15344;52.342;-1.290;2023-05-23T02:01:40;101261.39;;;17.96;49.76
28027;BME280;15344;52.342;-1.290;2023-05-23T02:04:04;101263.63;;;18.18;49.64
28027;BME280;15344;52.342;-1.290;2023-05-23T02:06:30;101268.69;;;18.11;50.22
28027;BME280;15344;52.342;-1.290;2023-05-23T02:08:55;101269.43;;;17.87;48.95
28027;BME280;15344;52.342;-1.290;2023-05-23T02:11:21;101275.52;;;17.57;49.99
28027;BME280;15344;52.342;-1.290;2023-05-23T02:13:47;101274.27;;;17.82;50.11
28027;BME280;15344;52.342;-1.290;2023-05-23T02:16:11;101274.02;;;17.52;50.86
28027;BME280;15344;52.342;-1.290;2023-05-23T02:18:37;101272.55;;;17.23;51.81
28027;BME280;15344;52.342;-1.290;2023-05-23T02:21:03;101270.65;;;16.91;52.81
28027;BME280;15344;52.342;-1.290;2023-05-23T02:23:28;101271.80;;;17.20;53.06
28027;BME280;15344;52.342;-1.290;2023-05-23T02:25:54;101270.09;;;17.89;51.73
28027;BME280;15344;52.342;-1.290;2023-05-23T02:28:19;101265.87;;;17.73;50.96
28027;BME280;15344;52.342;-1.290;2023-05-23T02:30:44;101267.16;;;17.09;52.12
28027;BME280;15344;52.342;-1.290;2023-05-23T02:33:10;101261.21;;;17.63;52.20
28027;BME280;15344;52.342;-1.290;2023-05-23T02:35:36;101259.96;;;16.70;52.91
28027;BME280;15344;52.342;-1.290;2023-05-23T02:38:01;101259.59;;;17.10;52.99
28027;BME280;15344;52.342;-1.290;2023-05-23T02:40:26;101254.99;;;17.85;50.66
28027;BME280;15344;52.342;-1.290;2023-05-23T02:42:51;101257.39;;;17.15;53.11
28027;BME280;15344;52.342;-1.290;2023-05-23T02:45:17;101263.02;;;17.64;52.55
28027;BME280;15344;52.342;-1.290;2023-05-23T02:47:42;101264.51;;;17.61;53.23
28027;BME280;15344;52.342;-1.290;2023-05-23T02:50:08;101260.77;;;17.36;52.83
28027;BME280;15344;52.342;-1.290;2023-05-23T02:52:33;101261.65;;;17.91;51.95
28027;BME280;15344;52.342;-1.290;2023-05-23T02:54:58;101258.26;;;18.07;51.52
28027;BME280;15344;52.342;-1.290;2023-05-23T02:57:24;101255.29;;;18.63;51.35
28027;BME280;15344;52.342;-1.290;2023-05-23T02:59:49;101252.05;;;18.28;51.31
28027;BME280;15344;52.342;-1.290;2023-05-23T03:02:15;101253.10;;;18.76;50.35
28027;BME280;15344;52.342;-1.290;2023-05-23T03:04:40;101255.04;;;18.22;50.67
28027;BME280;15344;52.342;-1.290;2023-05-23T03:07:06;101262.11;;;18.16;50.30
28027;BME280;15344;52.342;-1.290;2023-05-23T03:09:31;101268.48;;;18.22;51.32
28027;BME280;15344;52.342;-1.290;2023-05-23T03:11:57;101274.50;;;16.84;52.90
28027;BME280;15344;52.342;-1.290;2023-05-23T03:14:22;101276.88;;;16.93;53.21
28027;BME280;15344;52.342;-1.290;2023-05-23T03:16:47;101278.30;;;16.71;54.37
28027;BME280;15344;52.342;-1.290;2023-05-23T03:19:12;101275.08;;;16.78;54.05
28027;BME280;15344;52.342;-1.290;2023-05-23T03:21:38;101276.01;;;16.54;54.20
28027;BME280;15344;52.342;-1.290;2023-05-23T03:24:04;101274.81;;;16.88;55.03
28027;BME280;15344;52.342;-1.290;2023-05-23T03:26:29;101274.03;;;17.80;53.64
28027;BME280;15344;52.342;-1.290;2023-05-23T03:28:55;101274.64;;;17.68;53.55
28027;BME280;15344;52.342;-1.290;2023-05-23T03:31:20;101282.60;;;18.08;52.78
28027;BME280;15344;52.342;-1.290;2023-05-23T03:33:45;101284.09;;;17.96;53.14
28027;BME280;15344;52.342;-1.290;2023-05-23T03:36:10;101286.42;;;17.93;53.72
28027;BME280;15344;52.342;-1.290;2023-05-23T03:38:36;101289.09;;;17.62;53.90
28027;BME280;15344;52.342;-1.290;2023-05-23T03:41:01;101294.88;;;17.17;54.38
28027;BME280;15344;52.342;-1.290;2023-05-23T03:43:27;101297.30;;;17.63;54.89
28027;BME280;15344;52.342;-1.290;2023-05-23T03:45:52;101295.31;;;17.17;56.17
28027;BME280;15344;52.342;-1.290;2023-05-23T03:48:18;101295.50;;;17.06;55.97
28027;BME280;15344;52.342;-1.290;2023-05-23T03:50:44;101296.59;;;16.93;56.39
28027;BME280;15344;52.342;-1.290;2023-05-23T03:53:09;101294.06;;;18.06;54.14
28027;BME280;15344;52.342;-1.290;2023-05-23T03:55:34;101296.16;;;17.59;55.35
28027;BME280;15344;52.342;-1.290;2023-05-23T03:58:00;101297.87;;;17.37;55.76
28027;BME280;15344;52.342;-1.290;2023-05-23T04:00:26;101300.40;;;17.16;56.20
28027;BME280;15344;52.342;-1.290;2023-05-23T04:02:51;101298.81;;;17.54;54.29
28027;BME280;15344;52.342;-1.290;2023-05-23T04:05:17;101294.26;;;17.70;54.08
28027;BME280;15344;52.342;-1.290;2023-05-23T04:07:43;101294.26;;;17.64;54.34
28027;BME280;15344;52.342;-1.290;2023-05-23T04:10:08;101294.07;;;17.68;53.97
28027;BME280;15344;52.342;-1.290;2023-05-23T04:12:34;101291.36;;;17.13;55.19
28027;BME280;15344;52.342;-1.290;2023-05-23T04:14:59;101292.52;;;17.35;55.17
28027;BME280;15344;52.342;-1.290;2023-05-23T04:17:25;101298.40;;;17.30;54.74
28027;BME280;15344;52.342;-1.290;2023-05-23T04:19:50;101304.17;;;17.12;55.49
28027;BME280;15344;52.342;-1.290;2023-05-23T04:22:15;101304.41;;;16.77;57.35
28027;BME280;15344;52.342;-1.290;2023-05-23T04:24:40;101301.37;;;16.61;58.76
28027;BME280;15344;52.342;-1.290;2023-05-23T04:27:05;101307.31;;;17.63;55.06
28027;BME280;15344;52.342;-1.290;2023-05-23T04:29:31;101303.83;;;17.50;55.14
28027;BME280;15344;52.342;-1.290;2023-05-23T04:31:56;101304.26;;;17.62;54.22
28027;BME280;15344;52.342;-1.290;2023-05-23T04:34:22;101307.64;;;17.57;54.16
28027;BME280;15344;52.342;-1.290;2023-05-23T04:36:47;101306.04;;;17.07;55.56
28027;BME280;15344;52.342;-1.290;2023-05-23T04:39:12;101305.08;;;17.48;55.26
28027;BME280;15344;52.342;-1.290;2023-05-23T04:41:39;101306.03;;;17.51;55.09
28027;BME280;15344;52.342;-1.290;2023-05-23T04:44:03;101304.53;;;17.06;55.47
28027;BME280;15344;52.342;-1.290;2023-05-23T04:46:29;101309.03;;;17.45;54.27
28027;BME280;15344;52.342;-1.290;2023-05-23T04:48:54;101311.48;;;16.73;56.11
28027;BME280;15344;52.342;-1.290;2023-05-23T04:51:20;101313.17;;;17.22;55.19
28027;BME280;15344;52.342;-1.290;2023-05-23T04:53:46;101316.92;;;16.02;57.30
28027;BME280;15344;52.342;-1.290;2023-05-23T04:56:11;101319.23;;;17.37;56.53
28027;BME280;15344;52.342;-1.290;2023-05-23T04:58:36;101323.56;;;16.46;57.52
28027;BME280;15344;52.342;-1.290;2023-05-23T05:01:02;101327.39;;;16.59;58.11
28027;BME280;15344;52.342;-1.290;2023-05-23T05:03:27;101332.22;;;15.51;58.42
28027;BME280;15344;52.342;-1.290;2023-05-23T05:05:53;101324.29;;;16.56;58.10
28027;BME280;15344;52.342;-1.290;2023-05-23T05:08:18;101323.13;;;16.81;57.51
28027;BME280;15344;52.342;-1.290;2023-05-23T05:10:43;101324.21;;;16.85;57.88
28027;BME280;15344;52.342;-1.290;2023-05-23T05:13:09;101320.61;;;17.02;57.41
28027;BME280;15344;52.342;-1.290;2023-05-23T05:15:34;101322.66;;;17.19;58.18
28027;BME280;15344;52.342;-1.290;2023-05-23T05:17:59;101323.70;;;17.21;57.89
28027;BME280;15344;52.342;-1.290;2023-05-23T05:20:24;101327.88;;;16.34;58.84
28027;BME280;15344;52.342;-1.290;2023-05-23T05:22:55;101332.03;;;16.51;58.41
28027;BME280;15344;52.342;-1.290;2023-05-23T05:25:15;101337.30;;;15.33;62.12
28027;BME280;15344;52.342;-1.290;2023-05-23T05:27:40;101339.66;;;15.99;61.36
28027;BME280;15344;52.342;-1.290;2023-05-23T05:30:07;101334.27;;;16.40;60.06
28027;BME280;15344;52.342;-1.290;2023-05-23T05:32:31;101335.54;;;17.18;58.75
28027;BME280;15344;52.342;-1.290;2023-05-23T05:34:56;101336.00;;;15.68;60.55
28027;BME280;15344;52.342;-1.290;2023-05-23T05:37:22;101334.73;;;17.52;56.48
28027;BME280;15344;52.342;-1.290;2023-05-23T05:39:47;101334.70;;;16.03;58.45
28027;BME280;15344;52.342;-1.290;2023-05-23T05:42:12;101333.54;;;16.92;57.11
28027;BME280;15344;52.342;-1.290;2023-05-23T05:44:37;101331.51;;;17.27;56.29
28027;BME280;15344;52.342;-1.290;2023-05-23T05:47:03;101331.11;;;15.88;58.23
28027;BME280;15344;52.342;-1.290;2023-05-23T05:49:28;101330.10;;;16.93;55.93
28027;BME280;15344;52.342;-1.290;2023-05-23T05:51:53;101327.25;;;16.66;56.75
28027;BME280;15344;52.342;-1.290;2023-05-23T05:54:19;101324.06;;;16.39;56.63
28027;BME280;15344;52.342;-1.290;2023-05-23T05:56:44;101321.07;;;16.68;54.73
28027;BME280;15344;52.342;-1.290;2023-05-23T05:59:09;101323.58;;;15.80;56.03
28027;BME280;15344;52.342;-1.290;2023-05-23T06:01:35;101321.93;;;15.96;56.39
28027;BME280;15344;52.342;-1.290;2023-05-23T06:04:00;101327.16;;;14.72;59.85
28027;BME280;15344;52.342;-1.290;2023-05-23T06:06:25;101334.90;;;15.23;58.24
28027;BME280;15344;52.342;-1.290;2023-05-23T06:08:51;101336.97;;;16.91;54.78
28027;BME280;15344;52.342;-1.290;2023-05-23T06:11:16;101342.03;;;16.06;57.44
28027;BME280;15344;52.342;-1.290;2023-05-23T06:13:41;101341.89;;;16.02;56.94
28027;BME280;15344;52.342;-1.290;2023-05-23T06:16:07;101342.77;;;15.91;56.41
28027;BME280;15344;52.342;-1.290;2023-05-23T06:18:32;101336.84;;;16.55;56.48
28027;BME280;15344;52.342;-1.290;2023-05-23T06:20:57;101341.30;;;16.40;56.80
28027;BME280;15344;52.342;-1.290;2023-05-23T06:23:22;101344.17;;;16.16;57.16
28027;BME280;15344;52.342;-1.290;2023-05-23T06:25:49;101342.31;;;15.94;56.78
28027;BME280;15344;52.342;-1.290;2023-05-23T06:28:14;101342.09;;;16.02;55.89
28027;BME280;15344;52.342;-1.290;2023-05-23T06:30:39;101340.98;;;16.13;57.94
28027;BME280;15344;52.342;-1.290;2023-05-23T06:33:04;101343.58;;;15.85;58.18
28027;BME280;15344;52.342;-1.290;2023-05-23T06:35:29;101339.50;;;15.80;57.99
28027;BME280;15344;52.342;-1.290;2023-05-23T06:37:55;101338.43;;;15.61;58.12
28027;BME280;15344;52.342;-1.290;2023-05-23T06:40:21;101340.16;;;15.23;59.29
28027;BME280;15344;52.342;-1.290;2023-05-23T06:42:46;101342.28;;;15.47;59.01
28027;BME280;15344;52.342;-1.290;2023-05-23T06:45:11;101334.23;;;15.96;57.91
28027;BME280;15344;52.342;-1.290;2023-05-23T06:47:36;101326.98;;;16.57;55.38
28027;BME280;15344;52.342;-1.290;2023-05-23T06:50:02;101325.88;;;16.89;53.98
28027;BME280;15344;52.342;-1.290;2023-05-23T06:52:27;101327.34;;;17.17;52.48
28027;BME280;15344;52.342;-1.290;2023-05-23T06:54:52;101333.04;;;17.42;50.83
28027;BME280;15344;52.342;-1.290;2023-05-23T06:57:17;101334.64;;;17.70;49.70
28027;BME280;15344;52.342;-1.290;2023-05-23T06:59:42;101334.61;;;17.96;50.70
28027;BME280;15344;52.342;-1.290;2023-05-23T07:02:07;101337.28;;;17.32;51.04
28027;BME280;15344;52.342;-1.290;2023-05-23T07:04:33;101339.55;;;17.89;48.07
28027;BME280;15344;52.342;-1.290;2023-05-23T07:06:58;101342.54;;;19.22;47.74
28027;BME280;15344;52.342;-1.290;2023-05-23T07:09:23;101339.93;;;19.84;45.84
28027;BME280;15344;52.342;-1.290;2023-05-23T07:11:48;101336.41;;;20.18;44.86
28027;BME280;15344;52.342;-1.290;2023-05-23T07:14:14;101331.76;;;20.65;43.49
28027;BME280;15344;52.342;-1.290;2023-05-23T07:16:38;101336.08;;;21.02;44.67
28027;BME280;15344;52.342;-1.290;2023-05-23T07:19:04;101340.39;;;19.36;42.40
28027;BME280;15344;52.342;-1.290;2023-05-23T07:21:29;101337.49;;;20.59;40.82
28027;BME280;15344;52.342;-1.290;2023-05-23T07:23:54;101339.56;;;19.32;41.61
28027;BME280;15344;52.342;-1.290;2023-05-23T07:26:20;101338.72;;;21.35;42.33
28027;BME280;15344;52.342;-1.290;2023-05-23T07:28:45;101337.15;;;21.15;40.66
28027;BME280;15344;52.342;-1.290;2023-05-23T07:31:10;101341.76;;;21.70;41.07
28027;BME280;15344;52.342;-1.290;2023-05-23T07:33:35;101335.50;;;20.08;41.23
28027;BME280;15344;52.342;-1.290;2023-05-23T07:36:00;101331.21;;;21.00;39.82
28027;BME280;15344;52.342;-1.290;2023-05-23T07:38:25;101331.22;;;20.32;41.06
28027;BME280;15344;52.342;-1.290;2023-05-23T07:40:50;101330.12;;;20.32;40.91
28027;BME280;15344;52.342;-1.290;2023-05-23T07:43:15;101336.05;;;20.07;41.33
28027;BME280;15344;52.342;-1.290;2023-05-23T07:45:40;101330.56;;;21.58;39.54
28027;BME280;15344;52.342;-1.290;2023-05-23T07:48:06;101334.54;;;20.25;41.34
28027;BME280;15344;52.342;-1.290;2023-05-23T07:50:31;101342.17;;;19.75;41.31
28027;BME280;15344;52.342;-1.290;2023-05-23T07:52:56;101340.68;;;20.54;39.19
28027;BME280;15344;52.342;-1.290;2023-05-23T07:55:21;101343.41;;;20.98;39.80
28027;BME280;15344;52.342;-1.290;2023-05-23T07:57:47;101350.57;;;22.05;38.85
28027;BME280;15344;52.342;-1.290;2023-05-23T08:00:13;101347.90;;;22.35;37.44
28027;BME280;15344;52.342;-1.290;2023-05-23T08:02:37;101344.45;;;23.37;38.51
28027;BME280;15344;52.342;-1.290;2023-05-23T08:05:02;101350.51;;;22.18;37.71
28027;BME280;15344;52.342;-1.290;2023-05-23T08:07:27;101353.14;;;20.98;37.88
28027;BME280;15344;52.342;-1.290;2023-05-23T08:09:52;101351.78;;;21.98;37.69
28027;BME280;15344;52.342;-1.290;2023-05-23T08:12:17;101355.41;;;23.10;37.04
28027;BME280;15344;52.342;-1.290;2023-05-23T08:14:43;101359.93;;;25.18;33.95
28027;BME280;15344;52.342;-1.290;2023-05-23T08:17:11;101365.63;;;22.87;32.99
28027;BME280;15344;52.342;-1.290;2023-05-23T08:19:35;101367.65;;;25.90;31.11
28027;BME280;15344;52.342;-1.290;2023-05-23T08:22:00;101376.79;;;25.51;29.93
28027;BME280;15344;52.342;-1.290;2023-05-23T08:24:26;101382.77;;;22.61;34.44
28027;BME280;15344;52.342;-1.290;2023-05-23T08:26:52;101381.36;;;23.22;34.03
28027;BME280;15344;52.342;-1.290;2023-05-23T08:29:18;101375.44;;;22.91;33.29
28027;BME280;15344;52.342;-1.290;2023-05-23T08:31:44;101376.73;;;22.41;36.02
28027;BME280;15344;52.342;-1.290;2023-05-23T08:34:10;101380.56;;;23.04;35.36
28027;BME280;15344;52.342;-1.290;2023-05-23T08:36:34;101376.67;;;22.13;33.78
28027;BME280;15344;52.342;-1.290;2023-05-23T08:38:59;101378.37;;;20.82;35.13
28027;BME280;15344;52.342;-1.290;2023-05-23T08:41:24;101378.85;;;18.97;37.43
28027;BME280;15344;52.342;-1.290;2023-05-23T08:43:49;101376.82;;;20.49;38.18
28027;BME280;15344;52.342;-1.290;2023-05-23T08:46:15;101380.99;;;20.06;37.83
28027;BME280;15344;52.342;-1.290;2023-05-23T08:48:41;101375.55;;;20.96;35.70
28027;BME280;15344;52.342;-1.290;2023-05-23T08:51:05;101385.96;;;19.75;38.27
28027;BME280;15344;52.342;-1.290;2023-05-23T08:53:30;101385.28;;;20.42;38.24
28027;BME280;15344;52.342;-1.290;2023-05-23T08:55:54;101390.65;;;21.69;37.66
28027;BME280;15344;52.342;-1.290;2023-05-23T08:58:19;101386.77;;;20.77;37.75
28027;BME280;15344;52.342;-1.290;2023-05-23T09:00:45;101384.60;;;21.74;38.42
28027;BME280;15344;52.342;-1.290;2023-05-23T09:03:10;101383.92;;;21.90;37.93
28027;BME280;15344;52.342;-1.290;2023-05-23T09:05:35;101384.02;;;22.10;37.24
28027;BME280;15344;52.342;-1.290;2023-05-23T09:08:00;101387.03;;;21.28;36.92
28027;BME280;15344;52.342;-1.290;2023-05-23T09:10:25;101386.28;;;21.84;37.40
28027;BME280;15344;52.342;-1.290;2023-05-23T09:12:50;101379.69;;;21.87;37.25
28027;BME280;15344;52.342;-1.290;2023-05-23T09:15:15;101376.45;;;21.89;36.11
28027;BME280;15344;52.342;-1.290;2023-05-23T09:17:40;101378.25;;;21.68;37.16
28027;BME280;15344;52.342;-1.290;2023-05-23T09:20:10;101376.94;;;22.85;35.56
28027;BME280;15344;52.342;-1.290;2023-05-23T09:22:30;101372.54;;;22.95;35.13
28027;BME280;15344;52.342;-1.290;2023-05-23T09:24:56;101372.57;;;22.30;34.10
28027;BME280;15344;52.342;-1.290;2023-05-23T09:27:20;101366.56;;;21.10;35.37
28027;BME280;15344;52.342;-1.290;2023-05-23T09:29:46;101367.18;;;23.13;35.08
28027;BME280;15344;52.342;-1.290;2023-05-23T09:32:13;101371.38;;;21.72;33.50
28027;BME280;15344;52.342;-1.290;2023-05-23T09:34:40;101370.77;;;22.90;33.28
28027;BME280;15344;52.342;-1.290;2023-05-23T09:37:02;101372.70;;;24.45;31.88
28027;BME280;15344;52.342;-1.290;2023-05-23T09:39:28;101370.12;;;25.03;31.49
28027;BME280;15344;52.342;-1.290;2023-05-23T09:41:53;101370.15;;;25.13;32.03
28027;BME280;15344;52.342;-1.290;2023-05-23T09:44:22;101371.64;;;24.97;31.69
28027;BME280;15344;52.342;-1.290;2023-05-23T09:46:50;101372.29;;;26.66;30.85
28027;BME280;15344;52.342;-1.290;2023-05-23T09:49:15;101370.43;;;25.06;29.97
28027;BME280;15344;52.342;-1.290;2023-05-23T09:51:36;101368.23;;;24.86;29.98
28027;BME280;15344;52.342;-1.290;2023-05-23T09:54:03;101372.25;;;26.45;29.53
28027;BME280;15344;52.342;-1.290;2023-05-23T09:56:28;101374.09;;;26.69;28.52
28027;BME280;15344;52.342;-1.290;2023-05-23T09:58:54;101373.69;;;24.15;29.50
28027;BME280;15344;52.342;-1.290;2023-05-23T10:01:22;101380.13;;;24.07;31.05
28027;BME280;15344;52.342;-1.290;2023-05-23T10:03:48;101379.65;;;24.30;30.35
28027;BME280;15344;52.342;-1.290;2023-05-23T10:06:16;101376.24;;;25.32;28.41
28027;BME280;15344;52.342;-1.290;2023-05-23T10:08:43;101379.16;;;24.22;30.10
28027;BME280;15344;52.342;-1.290;2023-05-23T10:13:31;101384.70;;;24.58;31.83
28027;BME280;15344;52.342;-1.290;2023-05-23T10:15:59;101382.41;;;23.56;32.97
28027;BME280;15344;52.342;-1.290;2023-05-23T10:18:25;101384.01;;;24.64;31.76
28027;BME280;15344;52.342;-1.290;2023-05-23T10:20:48;101386.65;;;21.74;35.03
28027;BME280;15344;52.342;-1.290;2023-05-23T10:23:12;101383.81;;;22.78;33.34
28027;BME280;15344;52.342;-1.290;2023-05-23T10:25:37;101383.47;;;23.00;33.85
28027;BME280;15344;52.342;-1.290;2023-05-23T10:28:03;101381.85;;;23.94;32.98
28027;BME280;15344;52.342;-1.290;2023-05-23T10:30:28;101383.05;;;23.27;33.91
28027;BME280;15344;52.342;-1.290;2023-05-23T10:32:53;101381.93;;;23.45;33.24
28027;BME280;15344;52.342;-1.290;2023-05-23T10:35:24;101381.39;;;24.10;34.18
28027;BME280;15344;52.342;-1.290;2023-05-23T10:37:48;101379.22;;;24.23;31.40
28027;BME280;15344;52.342;-1.290;2023-05-23T10:40:15;101376.29;;;23.98;32.05
28027;BME280;15344;52.342;-1.290;2023-05-23T10:42:41;101380.21;;;20.16;33.74
28027;BME280;15344;52.342;-1.290;2023-05-23T10:47:25;101378.88;;;22.56;34.77
28027;BME280;15344;52.342;-1.290;2023-05-23T10:49:51;101377.97;;;22.37;35.38
28027;BME280;15344;52.342;-1.290;2023-05-23T10:52:15;101376.46;;;22.75;35.13
28027;BME280;15344;52.342;-1.290;2023-05-23T10:54:42;101374.28;;;22.46;34.03
28027;BME280;15344;52.342;-1.290;2023-05-23T10:57:03;101377.69;;;23.23;34.29
28027;BME280;15344;52.342;-1.290;2023-05-23T10:59:28;101373.90;;;22.70;35.21
28027;BME280;15344;52.342;-1.290;2023-05-23T11:01:52;101377.83;;;21.90;35.75
28027;BME280;15344;52.342;-1.290;2023-05-23T11:04:24;101374.88;;;23.24;35.16
28027;BME280;15344;52.342;-1.290;2023-05-23T11:06:43;101375.15;;;23.36;33.71
28027;BME280;15344;52.342;-1.290;2023-05-23T11:09:10;101376.80;;;23.43;35.69
28027;BME280;15344;52.342;-1.290;2023-05-23T11:13:58;101377.22;;;23.44;35.00
28027;BME280;15344;52.342;-1.290;2023-05-23T11:16:25;101375.57;;;21.78;36.46
28027;BME280;15344;52.342;-1.290;2023-05-23T11:18:48;101370.53;;;21.89;38.08
28027;BME280;15344;52.342;-1.290;2023-05-23T11:21:15;101366.20;;;22.97;35.67
28027;BME280;15344;52.342;-1.290;2023-05-23T11:23:40;101363.78;;;23.30;35.79
28027;BME280;15344;52.342;-1.290;2023-05-23T11:26:03;101363.34;;;22.70;35.69
28027;BME280;15344;52.342;-1.290;2023-05-23T11:28:28;101366.36;;;24.22;34.29
28027;BME280;15344;52.342;-1.290;2023-05-23T11:30:53;101362.15;;;22.25;33.81
28027;BME280;15344;52.342;-1.290;2023-05-23T11:33:18;101356.30;;;25.44;35.31
28027;BME280;15344;52.342;-1.290;2023-05-23T11:35:44;101360.45;;;23.78;34.16
28027;BME280;15344;52.342;-1.290;2023-05-23T11:38:09;101356.10;;;21.81;35.93
28027;BME280;15344;52.342;-1.290;2023-05-23T11:40:34;101357.93;;;22.46;35.87
28027;BME280;15344;52.342;-1.290;2023-05-23T11:42:59;101355.75;;;24.22;32.41
28027;BME280;15344;52.342;-1.290;2023-05-23T11:45:24;101347.13;;;24.77;32.16
28027;BME280;15344;52.342;-1.290;2023-05-23T11:47:49;101348.38;;;23.05;31.70
28027;BME280;15344;52.342;-1.290;2023-05-23T11:50:16;101351.32;;;24.52;32.84
28027;BME280;15344;52.342;-1.290;2023-05-23T11:52:41;101352.93;;;22.86;32.15
28027;BME280;15344;52.342;-1.290;2023-05-23T11:55:10;101352.75;;;23.87;32.31
28027;BME280;15344;52.342;-1.290;2023-05-23T11:57:33;101345.76;;;24.61;31.54
28027;BME280;15344;52.342;-1.290;2023-05-23T11:59:59;101345.26;;;25.48;32.32
28027;BME280;15344;52.342;-1.290;2023-05-23T12:02:27;101343.39;;;24.85;31.02
28027;BME280;15344;52.342;-1.290;2023-05-23T12:04:50;101347.26;;;24.34;31.41
28027;BME280;15344;52.342;-1.290;2023-05-23T12:07:18;101345.88;;;24.19;33.38
28027;BME280;15344;52.342;-1.290;2023-05-23T12:09:42;101345.72;;;24.29;31.13
28027;BME280;15344;52.342;-1.290;2023-05-23T12:12:08;101348.66;;;25.78;31.89
28027;BME280;15344;52.342;-1.290;2023-05-23T12:14:34;101343.18;;;24.83;30.43
28027;BME280;15344;52.342;-1.290;2023-05-23T12:17:00;101343.94;;;24.70;33.01
28027;BME280;15344;52.342;-1.290;2023-05-23T12:19:25;101348.35;;;23.90;33.11
28027;BME280;15344;52.342;-1.290;2023-05-23T12:21:51;101348.25;;;23.20;33.04
28027;BME280;15344;52.342;-1.290;2023-05-23T12:24:18;101343.41;;;24.15;33.25
28027;BME280;15344;52.342;-1.290;2023-05-23T12:26:48;101343.07;;;25.00;32.71
28027;BME280;15344;52.342;-1.290;2023-05-23T12:29:09;101340.69;;;24.53;32.51
28027;BME280;15344;52.342;-1.290;2023-05-23T12:31:35;101339.53;;;25.45;34.09
28027;BME280;15344;52.342;-1.290;2023-05-23T12:34:01;101340.00;;;24.86;34.45
28027;BME280;15344;52.342;-1.290;2023-05-23T12:36:28;101343.35;;;23.65;30.96